createdAt,value
2018-11-12T00:00:56.782Z,0.00
2018-11-12T00:01:56.773Z,0.00
2018-11-12T00:02:56.781Z,0.00
2018-11-12T00:03:56.755Z,0.00
2018-11-12T00:04:56.733Z,0.00
2018-11-12T00:05:56.727Z,0.00
2018-11-12T00:06:56.714Z,0.00
2018-11-12T00:07:56.767Z,0.00
2018-11-12T00:08:56.721Z,0.00
2018-11-12T00:09:56.683Z,0.00
2018-11-12T00:10:56.674Z,0.00
2018-11-12T00:11:56.668Z,0.00
2018-11-12T00:12:56.666Z,0.00
2018-11-12T00:13:56.646Z,0.00
2018-11-12T00:14:56.627Z,0.00
2018-11-12T00:15:56.638Z,0.00
2018-11-12T00:16:56.604Z,0.00
2018-11-12T00:17:56.619Z,0.00
2018-11-12T00:18:56.606Z,0.00
2018-11-12T00:19:56.600Z,0.00
2018-11-12T00:20:56.562Z,0.00
2018-11-12T00:21:56.661Z,0.00
2018-11-12T00:22:56.564Z,0.00
2018-11-12T00:23:56.533Z,0.00
2018-11-12T00:24:56.520Z,0.00
2018-11-12T00:25:56.505Z,0.00
2018-11-12T00:26:56.500Z,0.00
2018-11-12T00:27:56.529Z,0.00
2018-11-12T00:28:56.500Z,0.00
2018-11-12T00:29:56.462Z,0.00
2018-11-12T00:30:56.459Z,0.00
2018-11-12T00:31:56.471Z,0.00
2018-11-12T00:32:56.428Z,0.00
2018-11-12T00:33:56.463Z,0.00
2018-11-12T00:34:56.448Z,0.00
2018-11-12T00:35:56.396Z,0.00
2018-11-12T00:36:56.414Z,0.00
2018-11-12T00:37:56.371Z,0.00
2018-11-12T00:38:56.389Z,0.00
2018-11-12T00:39:56.356Z,0.00
2018-11-12T00:40:56.350Z,0.00
2018-11-12T00:41:56.375Z,0.00
2018-11-12T00:42:56.329Z,0.00
2018-11-12T00:43:56.313Z,0.00
2018-11-12T00:44:56.323Z,0.00
2018-11-12T00:45:56.308Z,0.00
2018-11-12T00:46:56.304Z,0.00
2018-11-12T00:47:56.269Z,0.00
2018-11-12T00:48:56.251Z,0.00
2018-11-12T00:49:56.264Z,0.00
2018-11-12T00:50:56.238Z,0.00
2018-11-12T00:51:56.230Z,0.00
2018-11-12T00:52:56.211Z,0.00
2018-11-12T00:53:56.207Z,0.00
2018-11-12T00:54:56.216Z,0.00
2018-11-12T00:55:56.181Z,0.00
2018-11-12T00:56:56.173Z,0.00
2018-11-12T00:57:56.162Z,0.00
2018-11-12T00:58:56.195Z,0.00
2018-11-12T00:59:56.198Z,0.00
2018-11-12T01:00:56.123Z,0.00
2018-11-12T01:01:56.118Z,0.00
2018-11-12T01:02:56.110Z,0.00
2018-11-12T01:03:56.092Z,0.00
2018-11-12T01:04:56.088Z,0.00
2018-11-12T01:05:56.099Z,0.00
2018-11-12T01:06:56.067Z,0.00
2018-11-12T01:07:56.053Z,0.00
2018-11-12T01:08:56.054Z,0.00
2018-11-12T01:09:56.027Z,0.00
2018-11-12T01:10:56.086Z,0.00
2018-11-12T01:11:56.004Z,0.00
2018-11-12T01:12:55.998Z,0.00
2018-11-12T01:13:56.023Z,0.00
2018-11-12T01:14:56.017Z,0.00
2018-11-12T01:15:56.007Z,0.00
2018-11-12T01:16:55.990Z,0.00
2018-11-12T01:17:55.943Z,0.00
2018-11-12T01:18:55.929Z,0.00
2018-11-12T01:19:56.020Z,0.00
2018-11-12T01:20:55.912Z,0.00
2018-11-12T01:21:55.920Z,0.00
2018-11-12T01:22:55.882Z,0.00
2018-11-12T01:23:55.870Z,0.00
2018-11-12T01:24:56.050Z,0.00
2018-11-12T01:25:55.871Z,0.00
2018-11-12T01:26:55.882Z,0.00
2018-11-12T01:27:55.842Z,0.00
2018-11-12T01:28:55.824Z,0.00
2018-11-12T01:29:55.867Z,0.00
2018-11-12T01:30:55.969Z,0.00
2018-11-12T01:31:55.798Z,0.00
2018-11-12T01:32:55.777Z,0.00
2018-11-12T01:33:55.937Z,0.00
2018-11-12T01:34:55.754Z,0.00
2018-11-12T01:35:55.741Z,0.00
2018-11-12T01:36:55.859Z,0.00
2018-11-12T01:37:55.721Z,0.00
2018-11-12T01:38:55.717Z,0.00
2018-11-12T01:39:55.695Z,0.00
2018-11-12T01:40:55.690Z,0.00
2018-11-12T01:41:55.752Z,0.00
2018-11-12T01:42:55.674Z,0.00
2018-11-12T01:43:55.653Z,0.00
2018-11-12T01:44:55.648Z,0.00
2018-11-12T01:45:55.638Z,0.00
2018-11-12T01:46:55.667Z,0.00
2018-11-12T01:47:55.665Z,0.00
2018-11-12T01:48:55.596Z,0.00
2018-11-12T01:49:55.591Z,0.00
2018-11-12T01:50:55.597Z,0.00
2018-11-12T01:51:55.593Z,0.00
2018-11-12T01:52:55.555Z,0.00
2018-11-12T01:53:55.546Z,0.00
2018-11-12T01:54:55.556Z,0.00
2018-11-12T01:55:55.523Z,0.00
2018-11-12T01:56:55.535Z,0.00
2018-11-12T01:57:55.544Z,0.00
2018-11-12T01:58:55.486Z,0.00
2018-11-12T01:59:55.505Z,0.00
2018-11-12T02:00:55.471Z,0.00
2018-11-12T02:01:55.463Z,0.00
2018-11-12T02:02:55.507Z,0.00
2018-11-12T02:03:55.441Z,0.00
2018-11-12T02:04:55.489Z,0.00
2018-11-12T02:05:55.413Z,0.00
2018-11-12T02:06:55.398Z,0.00
2018-11-12T02:07:55.415Z,0.00
2018-11-12T02:08:55.539Z,0.00
2018-11-12T02:09:55.373Z,0.00
2018-11-12T02:10:55.358Z,0.00
2018-11-12T02:11:55.358Z,0.00
2018-11-12T02:12:55.357Z,0.00
2018-11-12T02:13:55.330Z,0.00
2018-11-12T02:14:55.320Z,0.00
2018-11-12T02:15:55.303Z,0.00
2018-11-12T02:16:55.289Z,0.00
2018-11-12T02:17:55.304Z,0.00
2018-11-12T02:18:55.279Z,0.00
2018-11-12T02:19:55.293Z,0.00
2018-11-12T02:20:55.258Z,0.00
2018-11-12T02:21:55.241Z,0.00
2018-11-12T02:22:55.258Z,0.00
2018-11-12T02:23:55.219Z,0.00
2018-11-12T02:24:55.220Z,0.00
2018-11-12T02:25:55.193Z,0.00
2018-11-12T02:26:55.189Z,0.00
2018-11-12T02:27:55.211Z,0.00
2018-11-12T02:28:55.187Z,0.00
2018-11-12T02:29:55.157Z,0.00
2018-11-12T02:30:55.156Z,0.00
2018-11-12T02:31:55.134Z,0.00
2018-11-12T02:32:55.148Z,0.00
2018-11-12T02:33:55.118Z,0.00
2018-11-12T02:34:55.097Z,0.00
2018-11-12T02:35:55.104Z,0.00
2018-11-12T02:36:55.081Z,0.00
2018-11-12T02:37:55.104Z,0.00
2018-11-12T02:38:55.058Z,0.00
2018-11-12T02:39:55.055Z,0.00
2018-11-12T02:40:55.036Z,0.00
2018-11-12T02:41:55.029Z,0.00
2018-11-12T02:42:55.068Z,0.00
2018-11-12T02:43:55.047Z,0.00
2018-11-12T02:44:54.989Z,0.00
2018-11-12T02:45:55.006Z,0.00
2018-11-12T02:46:54.965Z,0.00
2018-11-12T02:47:54.972Z,0.00
2018-11-12T02:48:54.972Z,0.00
2018-11-12T02:49:54.934Z,0.00
2018-11-12T02:50:54.924Z,0.00
2018-11-12T02:51:54.916Z,0.00
2018-11-12T02:52:54.900Z,0.00
2018-11-12T02:53:54.910Z,0.00
2018-11-12T02:54:54.920Z,0.00
2018-11-12T02:55:54.867Z,0.00
2018-11-12T02:56:54.856Z,0.00
2018-11-12T02:57:54.854Z,0.00
2018-11-12T02:58:54.871Z,0.00
2018-11-12T02:59:54.834Z,0.00
2018-11-12T03:00:54.812Z,0.00
2018-11-12T03:01:54.801Z,0.00
2018-11-12T03:02:54.793Z,0.00
2018-11-12T03:03:54.814Z,0.00
2018-11-12T03:04:54.776Z,0.00
2018-11-12T03:05:54.757Z,0.00
2018-11-12T03:06:54.749Z,0.00
2018-11-12T03:07:54.770Z,0.00
2018-11-12T03:08:54.728Z,0.00
2018-11-12T03:09:54.743Z,0.00
2018-11-12T03:10:54.713Z,0.00
2018-11-12T03:11:54.690Z,0.00
2018-11-12T03:12:54.721Z,0.00
2018-11-12T03:13:54.670Z,0.00
2018-11-12T03:14:54.683Z,0.00
2018-11-12T03:15:54.661Z,0.00
2018-11-12T03:16:54.657Z,0.00
2018-11-12T03:17:54.631Z,0.00
2018-11-12T03:18:54.647Z,0.00
2018-11-12T03:19:54.671Z,0.00
2018-11-12T03:20:54.595Z,0.00
2018-11-12T03:21:54.588Z,0.00
2018-11-12T03:22:54.573Z,0.00
2018-11-12T03:23:54.561Z,0.00
2018-11-12T03:24:54.570Z,0.00
2018-11-12T03:25:54.545Z,0.00
2018-11-12T03:26:54.533Z,0.00
2018-11-12T03:27:54.600Z,0.00
2018-11-12T03:28:54.513Z,0.00
2018-11-12T03:29:54.534Z,0.00
2018-11-12T03:30:54.481Z,0.00
2018-11-12T03:31:54.477Z,0.00
2018-11-12T03:32:54.470Z,0.00
2018-11-12T03:33:54.457Z,0.00
2018-11-12T03:34:54.443Z,0.00
2018-11-12T03:35:54.447Z,0.00
2018-11-12T03:36:54.423Z,0.00
2018-11-12T03:37:54.417Z,0.00
2018-11-12T03:38:54.407Z,0.00
2018-11-12T03:39:54.390Z,0.00
2018-11-12T03:40:54.397Z,0.00
2018-11-12T03:41:54.376Z,0.00
2018-11-12T03:42:54.353Z,0.00
2018-11-12T03:43:54.356Z,0.00
2018-11-12T03:44:54.389Z,0.00
2018-11-12T03:45:54.341Z,0.00
2018-11-12T03:46:54.319Z,0.00
2018-11-12T03:47:54.295Z,0.00
2018-11-12T03:48:54.309Z,0.00
2018-11-12T03:49:54.280Z,0.00
2018-11-12T03:50:54.294Z,0.00
2018-11-12T03:51:54.262Z,0.00
2018-11-12T03:52:54.251Z,0.00
2018-11-12T03:53:54.239Z,0.00
2018-11-12T03:54:54.265Z,0.00
2018-11-12T03:55:54.218Z,0.00
2018-11-12T03:56:54.225Z,0.00
2018-11-12T03:57:54.191Z,0.00
2018-11-12T03:58:54.179Z,0.00
2018-11-12T03:59:54.199Z,0.00
2018-11-12T04:00:54.222Z,0.00
2018-11-12T04:01:54.169Z,0.00
2018-11-12T04:02:54.143Z,0.00
2018-11-12T04:03:54.125Z,0.00
2018-11-12T04:04:54.112Z,0.00
2018-11-12T04:05:54.131Z,0.00
2018-11-12T04:06:54.116Z,0.00
2018-11-12T04:07:54.088Z,0.00
2018-11-12T04:08:54.104Z,0.00
2018-11-12T04:09:54.100Z,0.00
2018-11-12T04:10:54.047Z,0.00
2018-11-12T04:11:54.062Z,0.00
2018-11-12T04:12:54.035Z,0.00
2018-11-12T04:13:54.021Z,0.00
2018-11-12T04:14:54.004Z,0.00
2018-11-12T04:15:53.997Z,0.00
2018-11-12T04:16:53.999Z,0.00
2018-11-12T04:17:53.971Z,0.00
2018-11-12T04:18:53.964Z,0.00
2018-11-12T04:19:53.949Z,0.00
2018-11-12T04:20:53.937Z,0.00
2018-11-12T04:21:53.946Z,0.00
2018-11-12T04:22:53.926Z,0.00
2018-11-12T04:23:53.908Z,0.00
2018-11-12T04:24:53.906Z,0.00
2018-11-12T04:25:53.883Z,0.00
2018-11-12T04:26:53.887Z,0.00
2018-11-12T04:27:53.860Z,0.00
2018-11-12T04:28:53.857Z,0.00
2018-11-12T04:29:53.837Z,0.00
2018-11-12T04:30:53.844Z,0.00
2018-11-12T04:31:53.849Z,0.00
2018-11-12T04:32:53.814Z,0.00
2018-11-12T04:33:53.795Z,0.00
2018-11-12T04:34:53.786Z,0.00
2018-11-12T04:35:53.778Z,0.00
2018-11-12T04:36:53.791Z,0.00
2018-11-12T04:37:53.767Z,0.00
2018-11-12T04:38:53.743Z,0.00
2018-11-12T04:39:53.730Z,0.00
2018-11-12T04:40:53.722Z,0.00
2018-11-12T04:41:53.733Z,0.00
2018-11-12T04:42:53.701Z,0.00
2018-11-12T04:43:53.692Z,0.00
2018-11-12T04:44:53.675Z,0.00
2018-11-12T04:45:53.671Z,0.00
2018-11-12T04:46:53.672Z,0.00
2018-11-12T04:47:53.689Z,0.00
2018-11-12T04:48:53.633Z,0.00
2018-11-12T04:49:53.623Z,0.00
2018-11-12T04:50:53.626Z,0.00
2018-11-12T04:51:53.599Z,0.00
2018-11-12T04:52:53.613Z,0.00
2018-11-12T04:53:53.655Z,0.00
2018-11-12T04:54:53.565Z,0.00
2018-11-12T04:55:53.578Z,0.00
2018-11-12T04:56:53.544Z,0.00
2018-11-12T04:57:53.562Z,0.00
2018-11-12T04:58:53.531Z,0.00
2018-11-12T04:59:53.517Z,0.00
2018-11-12T05:00:53.507Z,0.00
2018-11-12T05:01:53.569Z,0.00
2018-11-12T05:02:53.501Z,0.00
2018-11-12T05:03:53.528Z,0.00
2018-11-12T05:04:53.468Z,0.00
2018-11-12T05:05:53.450Z,0.00
2018-11-12T05:06:53.450Z,0.00
2018-11-12T05:07:53.427Z,0.00
2018-11-12T05:08:53.437Z,0.00
2018-11-12T05:09:53.410Z,0.00
2018-11-12T05:10:53.398Z,0.00
2018-11-12T05:11:53.414Z,0.00
2018-11-12T05:12:53.370Z,0.00
2018-11-12T05:13:53.449Z,0.00
2018-11-12T05:14:53.349Z,0.00
2018-11-12T05:15:53.366Z,0.00
2018-11-12T05:16:53.429Z,0.00
2018-11-12T05:17:53.314Z,0.00
2018-11-12T05:18:53.328Z,0.00
2018-11-12T05:19:53.312Z,0.00
2018-11-12T05:20:53.285Z,0.00
2018-11-12T05:21:53.283Z,0.00
2018-11-12T05:22:53.267Z,0.00
2018-11-12T05:23:53.270Z,0.00
2018-11-12T05:24:53.271Z,0.00
2018-11-12T05:25:53.226Z,0.00
2018-11-12T05:26:53.226Z,0.00
2018-11-12T05:27:53.225Z,0.00
2018-11-12T05:28:53.194Z,0.00
2018-11-12T05:29:53.188Z,0.00
2018-11-12T05:30:53.197Z,0.00
2018-11-12T05:31:53.162Z,0.00
2018-11-12T05:32:53.158Z,0.00
2018-11-12T05:33:53.181Z,0.00
2018-11-12T05:34:53.127Z,0.00
2018-11-12T05:35:53.143Z,0.00
2018-11-12T05:36:53.118Z,0.00
2018-11-12T05:37:53.192Z,0.00
2018-11-12T05:38:53.095Z,0.00
2018-11-12T05:39:53.083Z,0.00
2018-11-12T05:40:53.091Z,0.00
2018-11-12T05:41:53.052Z,0.00
2018-11-12T05:42:53.050Z,0.00
2018-11-12T05:43:53.033Z,0.00
2018-11-12T05:44:53.097Z,0.00
2018-11-12T05:45:53.039Z,0.00
2018-11-12T05:46:53.005Z,0.00
2018-11-12T05:47:52.986Z,0.00
2018-11-12T05:48:52.979Z,0.00
2018-11-12T05:49:52.974Z,0.00
2018-11-12T05:50:52.982Z,0.00
2018-11-12T05:51:52.993Z,0.00
2018-11-12T05:52:52.936Z,0.00
2018-11-12T05:53:52.927Z,0.00
2018-11-12T05:54:52.914Z,0.00
2018-11-12T05:56:02.502Z,0.00
2018-11-12T05:56:52.893Z,0.00
2018-11-12T05:57:52.878Z,0.00
2018-11-12T05:58:52.890Z,0.00
2018-11-12T05:59:52.862Z,0.00
2018-11-12T06:00:52.847Z,0.00
2018-11-12T06:01:52.884Z,0.00
2018-11-12T06:02:52.837Z,0.00
2018-11-12T06:03:52.826Z,0.00
2018-11-12T06:04:52.886Z,0.00
2018-11-12T06:05:52.807Z,0.00
2018-11-12T06:06:52.804Z,0.00
2018-11-12T06:07:52.831Z,0.00
2018-11-12T06:08:52.775Z,0.00
2018-11-12T06:09:52.748Z,0.00
2018-11-12T06:10:52.779Z,0.00
2018-11-12T06:11:52.727Z,0.00
2018-11-12T06:12:52.733Z,0.00
2018-11-12T06:13:52.720Z,0.00
2018-11-12T06:14:52.691Z,0.00
2018-11-12T06:15:52.680Z,0.00
2018-11-12T06:16:52.670Z,0.00
2018-11-12T06:17:52.679Z,0.00
2018-11-12T06:18:52.654Z,0.00
2018-11-12T06:19:52.679Z,0.00
2018-11-12T06:20:52.626Z,0.00
2018-11-12T06:21:52.616Z,0.00
2018-11-12T06:22:52.781Z,0.00
2018-11-12T06:23:52.598Z,0.00
2018-11-12T06:24:52.591Z,0.00
2018-11-12T06:25:52.574Z,0.00
2018-11-12T06:26:52.568Z,4.00
2018-11-12T06:27:52.578Z,4.00
2018-11-12T06:28:52.542Z,4.00
2018-11-12T06:29:52.528Z,4.00
2018-11-12T06:30:52.518Z,4.00
2018-11-12T06:31:52.510Z,4.00
2018-11-12T06:32:52.517Z,4.00
2018-11-12T06:33:52.507Z,8.00
2018-11-12T06:34:52.476Z,4.00
2018-11-12T06:35:52.462Z,4.00
2018-11-12T06:36:52.607Z,4.00
2018-11-12T06:37:52.443Z,8.00
2018-11-12T06:38:52.453Z,8.00
2018-11-12T06:39:52.448Z,16.00
2018-11-12T06:40:52.446Z,16.00
2018-11-12T06:41:52.473Z,20.00
2018-11-12T06:42:52.551Z,24.00
2018-11-12T06:43:52.376Z,24.00
2018-11-12T06:44:52.391Z,28.00
2018-11-12T06:45:52.381Z,36.00
2018-11-12T06:46:52.344Z,32.00
2018-11-12T06:47:52.348Z,36.00
2018-11-12T06:48:52.322Z,40.00
2018-11-12T06:49:52.358Z,48.00
2018-11-12T06:50:52.298Z,52.00
2018-11-12T06:51:52.292Z,60.00
2018-11-12T06:52:52.326Z,64.00
2018-11-12T06:53:52.317Z,68.00
2018-11-12T06:54:52.256Z,80.00
2018-11-12T06:55:52.310Z,88.00
2018-11-12T06:56:52.233Z,104.00
2018-11-12T06:57:52.223Z,108.00
2018-11-12T06:58:52.227Z,116.00
2018-11-12T06:59:52.227Z,120.00
2018-11-12T07:00:52.252Z,128.00
2018-11-12T07:01:52.181Z,156.00
2018-11-12T07:02:52.195Z,168.00
2018-11-12T07:03:52.162Z,172.00
2018-11-12T07:04:52.170Z,192.00
2018-11-12T07:05:52.161Z,212.00
2018-11-12T07:06:52.190Z,216.00
2018-11-12T07:07:52.117Z,248.00
2018-11-12T07:08:52.101Z,320.00
2018-11-12T07:09:52.091Z,356.00
2018-11-12T07:10:52.112Z,392.00
2018-11-12T07:11:52.078Z,404.00
2018-11-12T07:12:52.080Z,348.00
2018-11-12T07:13:52.050Z,356.00
2018-11-12T07:14:52.038Z,368.00
2018-11-12T07:15:52.028Z,372.00
2018-11-12T07:16:52.037Z,388.00
2018-11-12T07:17:52.008Z,352.00
2018-11-12T07:18:52.009Z,328.00
2018-11-12T07:19:52.018Z,392.00
2018-11-12T07:20:51.979Z,392.00
2018-11-12T07:21:52.008Z,436.00
2018-11-12T07:22:52.024Z,440.00
2018-11-12T07:23:51.947Z,452.00
2018-11-12T07:24:51.930Z,556.00
2018-11-12T07:25:51.921Z,628.00
2018-11-12T07:26:51.919Z,588.00
2018-11-12T07:27:51.914Z,620.00
2018-11-12T07:28:51.916Z,640.00
2018-11-12T07:29:51.879Z,624.00
2018-11-12T07:30:51.972Z,580.00
2018-11-12T07:31:51.855Z,552.00
2018-11-12T07:32:51.869Z,580.00
2018-11-12T07:33:51.834Z,584.00
2018-11-12T07:34:51.828Z,556.00
2018-11-12T07:35:51.810Z,536.00
2018-11-12T07:36:51.801Z,552.00
2018-11-12T07:37:51.810Z,532.00
2018-11-12T07:38:51.791Z,520.00
2018-11-12T07:39:51.801Z,540.00
2018-11-12T07:40:51.760Z,544.00
2018-11-12T07:41:51.777Z,564.00
2018-11-12T07:42:51.776Z,616.00
2018-11-12T07:43:51.730Z,604.00
2018-11-12T07:44:51.745Z,608.00
2018-11-12T07:45:51.700Z,672.00
2018-11-12T07:46:51.693Z,688.00
2018-11-12T07:47:51.755Z,780.00
2018-11-12T07:48:51.768Z,728.00
2018-11-12T07:49:51.656Z,712.00
2018-11-12T07:50:51.658Z,684.00
2018-11-12T07:51:51.635Z,760.00
2018-11-12T07:52:51.640Z,636.00
2018-11-12T07:53:51.645Z,572.00
2018-11-12T07:54:51.604Z,592.00
2018-11-12T07:55:51.616Z,604.00
2018-11-12T07:56:51.584Z,464.00
2018-11-12T07:57:51.578Z,388.00
2018-11-12T07:58:51.585Z,368.00
2018-11-12T07:59:51.558Z,476.00
2018-11-12T08:00:51.587Z,564.00
2018-11-12T08:01:51.555Z,472.00
2018-11-12T08:02:51.573Z,380.00
2018-11-12T08:03:51.569Z,360.00
2018-11-12T08:04:51.518Z,388.00
2018-11-12T08:05:51.481Z,472.00
2018-11-12T08:06:51.470Z,500.00
2018-11-12T08:07:51.461Z,568.00
2018-11-12T08:08:51.563Z,504.00
2018-11-12T08:09:51.469Z,520.00
2018-11-12T08:10:51.439Z,504.00
2018-11-12T08:11:51.477Z,472.00
2018-11-12T08:12:51.406Z,444.00
2018-11-12T08:13:51.412Z,412.00
2018-11-12T08:14:51.448Z,384.00
2018-11-12T08:15:51.485Z,400.00
2018-11-12T08:16:51.365Z,464.00
2018-11-12T08:17:51.358Z,528.00
2018-11-12T08:18:51.354Z,544.00
2018-11-12T08:19:51.333Z,536.00
2018-11-12T08:20:51.344Z,544.00
2018-11-12T08:21:51.342Z,680.00
2018-11-12T08:22:51.297Z,816.00
2018-11-12T08:23:51.286Z,992.00
2018-11-12T08:24:51.278Z,1100.00
2018-11-12T08:25:51.284Z,1280.00
2018-11-12T08:26:51.265Z,1288.00
2018-11-12T08:27:51.245Z,1216.00
2018-11-12T08:28:51.232Z,1012.00
2018-11-12T08:29:51.376Z,732.00
2018-11-12T08:30:51.241Z,696.00
2018-11-12T08:31:51.256Z,692.00
2018-11-12T08:32:51.273Z,688.00
2018-11-12T08:33:51.178Z,736.00
2018-11-12T08:34:51.182Z,776.00
2018-11-12T08:35:51.166Z,1124.00
2018-11-12T08:36:51.165Z,1336.00
2018-11-12T08:37:51.132Z,1252.00
2018-11-12T08:38:51.121Z,1136.00
2018-11-12T08:39:51.228Z,1136.00
2018-11-12T08:40:51.281Z,1088.00
2018-11-12T08:41:51.114Z,896.00
2018-11-12T08:42:51.087Z,824.00
2018-11-12T08:43:51.083Z,892.00
2018-11-12T08:44:51.058Z,884.00
2018-11-12T08:45:51.095Z,800.00
2018-11-12T08:46:51.077Z,952.00
2018-11-12T08:47:51.071Z,956.00
2018-11-12T08:48:51.099Z,996.00
2018-11-12T08:49:51.077Z,1016.00
2018-11-12T08:50:50.994Z,980.00
2018-11-12T08:51:50.979Z,992.00
2018-11-12T08:52:51.203Z,1060.00
2018-11-12T08:53:51.007Z,1088.00
2018-11-12T08:54:51.009Z,980.00
2018-11-12T08:55:50.940Z,1040.00
2018-11-12T08:56:50.924Z,1088.00
2018-11-12T08:57:50.934Z,1128.00
2018-11-12T08:58:51.043Z,1140.00
2018-11-12T08:59:51.020Z,976.00
2018-11-12T09:00:51.008Z,932.00
2018-11-12T09:01:50.874Z,980.00
2018-11-12T09:02:50.908Z,1036.00
2018-11-12T09:03:50.902Z,1140.00
2018-11-12T09:04:50.854Z,1388.00
2018-11-12T09:05:50.871Z,1272.00
2018-11-12T09:06:50.819Z,1592.00
2018-11-12T09:07:50.812Z,2056.00
2018-11-12T09:08:50.818Z,1968.00
2018-11-12T09:09:50.846Z,1784.00
2018-11-12T09:10:50.776Z,1668.00
2018-11-12T09:11:50.762Z,1480.00
2018-11-12T09:12:50.771Z,1384.00
2018-11-12T09:13:50.763Z,1208.00
2018-11-12T09:14:50.737Z,1336.00
2018-11-12T09:15:50.809Z,1584.00
2018-11-12T09:16:50.731Z,1500.00
2018-11-12T09:17:50.715Z,1696.00
2018-11-12T09:18:50.685Z,1800.00
2018-11-12T09:19:50.695Z,1720.00
2018-11-12T09:20:50.670Z,1696.00
2018-11-12T09:21:50.655Z,1876.00
2018-11-12T09:22:50.656Z,1904.00
2018-11-12T09:23:50.633Z,1680.00
2018-11-12T09:24:50.643Z,1540.00
2018-11-12T09:25:50.608Z,1520.00
2018-11-12T09:26:50.616Z,1476.00
2018-11-12T09:27:50.589Z,1468.00
2018-11-12T09:28:50.578Z,1520.00
2018-11-12T09:29:50.612Z,1720.00
2018-11-12T09:30:51.524Z,2088.00
2018-11-12T09:31:50.580Z,2236.00
2018-11-12T09:32:50.626Z,2000.00
2018-11-12T09:33:50.527Z,2212.00
2018-11-12T09:34:50.547Z,2396.00
2018-11-12T09:35:50.529Z,2688.00
2018-11-12T09:36:50.601Z,3216.00
2018-11-12T09:37:50.486Z,3772.00
2018-11-12T09:38:50.609Z,3484.00
2018-11-12T09:39:50.475Z,2792.00
2018-11-12T09:40:50.456Z,2284.00
2018-11-12T09:41:50.501Z,1644.00
2018-11-12T09:42:50.482Z,1312.00
2018-11-12T09:43:50.431Z,1452.00
2018-11-12T09:44:50.407Z,1564.00
2018-11-12T09:45:50.452Z,1564.00
2018-11-12T09:46:50.410Z,1728.00
2018-11-12T09:47:50.475Z,2088.00
2018-11-12T09:48:50.441Z,2336.00
2018-11-12T09:49:50.358Z,2612.00
2018-11-12T09:50:50.343Z,2696.00
2018-11-12T09:51:50.374Z,2788.00
2018-11-12T09:52:50.322Z,2880.00
2018-11-12T09:53:50.471Z,2460.00
2018-11-12T09:54:50.437Z,2316.00
2018-11-12T09:55:50.291Z,2320.00
2018-11-12T09:56:50.278Z,2160.00
2018-11-12T09:57:50.299Z,1960.00
2018-11-12T09:58:50.251Z,1792.00
2018-11-12T09:59:50.258Z,2264.00
2018-11-12T10:00:50.536Z,2432.00
2018-11-12T10:01:50.758Z,1832.00
2018-11-12T10:02:51.210Z,1604.00
2018-11-12T10:03:51.835Z,1656.00
2018-11-12T10:04:51.768Z,1824.00
2018-11-12T10:05:51.291Z,2020.00
2018-11-12T10:06:51.456Z,2064.00
2018-11-12T10:07:52.143Z,2212.00
2018-11-12T10:08:52.359Z,2288.00
2018-11-12T10:09:52.992Z,2568.00
2018-11-12T10:10:53.258Z,2824.00
2018-11-12T10:11:51.948Z,2952.00
2018-11-12T10:12:52.084Z,3100.00
2018-11-12T10:13:52.420Z,3144.00
2018-11-12T10:14:52.896Z,3108.00
2018-11-12T10:15:52.260Z,3156.00
2018-11-12T10:16:53.372Z,3148.00
2018-11-12T10:17:52.512Z,3100.00
2018-11-12T10:18:50.054Z,3140.00
2018-11-12T10:19:50.021Z,2968.00
2018-11-12T10:20:50.013Z,2936.00
2018-11-12T10:21:50.002Z,2860.00
2018-11-12T10:22:50.009Z,2876.00
2018-11-12T10:23:49.992Z,3056.00
2018-11-12T10:24:49.982Z,2924.00
2018-11-12T10:25:49.950Z,2848.00
2018-11-12T10:26:50.043Z,2548.00
2018-11-12T10:27:49.958Z,2460.00
2018-11-12T10:28:49.922Z,2284.00
2018-11-12T10:29:49.935Z,2204.00
2018-11-12T10:30:49.902Z,2208.00
2018-11-12T10:31:49.927Z,2292.00
2018-11-12T10:32:49.876Z,2332.00
2018-11-12T10:33:49.885Z,2400.00
2018-11-12T10:34:49.883Z,2336.00
2018-11-12T10:35:49.904Z,2216.00
2018-11-12T10:36:49.837Z,2124.00
2018-11-12T10:37:49.826Z,2120.00
2018-11-12T10:38:49.812Z,2176.00
2018-11-12T10:39:49.870Z,2360.00
2018-11-12T10:40:49.810Z,2488.00
2018-11-12T10:41:49.785Z,2420.00
2018-11-12T10:42:49.866Z,2264.00
2018-11-12T10:43:49.764Z,2040.00
2018-11-12T10:44:49.780Z,1792.00
2018-11-12T10:45:49.740Z,1712.00
2018-11-12T10:46:49.758Z,1720.00
2018-11-12T10:47:49.756Z,1768.00
2018-11-12T10:48:49.728Z,1768.00
2018-11-12T10:49:49.703Z,1908.00
2018-11-12T10:50:56.250Z,2076.00
2018-11-12T10:51:49.670Z,2640.00
2018-11-12T10:52:49.672Z,3204.00
2018-11-12T10:53:50.329Z,3540.00
2018-11-12T10:54:49.771Z,3596.00
2018-11-12T10:55:49.808Z,3060.00
2018-11-12T10:56:49.619Z,2696.00
2018-11-12T10:57:49.606Z,2108.00
2018-11-12T10:58:49.633Z,2044.00
2018-11-12T10:59:49.674Z,2104.00
2018-11-12T11:00:49.580Z,2164.00
2018-11-12T11:01:49.583Z,2408.00
2018-11-12T11:02:49.560Z,2312.00
2018-11-12T11:03:49.544Z,2380.00
2018-11-12T11:04:49.578Z,2268.00
2018-11-12T11:05:49.530Z,2096.00
2018-11-12T11:06:49.521Z,1924.00
2018-11-12T11:07:49.496Z,1856.00
2018-11-12T11:08:49.517Z,1828.00
2018-11-12T11:09:49.482Z,1452.00
2018-11-12T11:10:49.486Z,1424.00
2018-11-12T11:11:49.460Z,1660.00
2018-11-12T11:12:49.450Z,1400.00
2018-11-12T11:13:49.491Z,1336.00
2018-11-12T11:14:49.425Z,1380.00
2018-11-12T11:15:49.432Z,1472.00
2018-11-12T11:16:49.407Z,1272.00
2018-11-12T11:17:49.389Z,1260.00
2018-11-12T11:18:49.382Z,1232.00
2018-11-12T11:19:49.397Z,1316.00
2018-11-12T11:20:49.396Z,1260.00
2018-11-12T11:21:49.378Z,1260.00
2018-11-12T11:22:49.339Z,1348.00
2018-11-12T11:23:49.331Z,1380.00
2018-11-12T11:24:56.858Z,1480.00
2018-11-12T11:25:58.055Z,1728.00
2018-11-12T11:26:56.846Z,2300.00
2018-11-12T11:27:57.837Z,2416.00
2018-11-12T11:28:57.853Z,2836.00
2018-11-12T11:29:56.818Z,2180.00
2018-11-12T11:30:58.250Z,1880.00
2018-11-12T11:31:57.798Z,1516.00
2018-11-12T11:32:58.056Z,1564.00
2018-11-12T11:33:56.758Z,2296.00
2018-11-12T11:34:49.213Z,1736.00
2018-11-12T11:35:49.194Z,1556.00
2018-11-12T11:36:49.235Z,1572.00
2018-11-12T11:37:49.191Z,1608.00
2018-11-12T11:38:49.172Z,1616.00
2018-11-12T11:39:49.158Z,1640.00
2018-11-12T11:40:49.198Z,1572.00
2018-11-12T11:41:57.832Z,1500.00
2018-11-12T11:42:49.133Z,1276.00
2018-11-12T11:43:49.186Z,1196.00
2018-11-12T11:44:49.097Z,1064.00
2018-11-12T11:45:49.142Z,1008.00
2018-11-12T11:46:49.094Z,1044.00
2018-11-12T11:47:49.319Z,1216.00
2018-11-12T11:48:49.116Z,1616.00
2018-11-12T11:49:49.051Z,1784.00
2018-11-12T11:50:49.037Z,1908.00
2018-11-12T11:51:49.023Z,2028.00
2018-11-12T11:52:49.041Z,1880.00
2018-11-12T11:53:49.003Z,1444.00
2018-11-12T11:54:49.012Z,1264.00
2018-11-12T11:55:49.003Z,1248.00
2018-11-12T11:56:49.116Z,1244.00
2018-11-12T11:57:48.985Z,1248.00
2018-11-12T11:58:48.947Z,1264.00
2018-11-12T11:59:48.942Z,1292.00
2018-11-12T12:00:48.977Z,1324.00
2018-11-12T12:01:48.914Z,1728.00
2018-11-12T12:02:48.981Z,1556.00
2018-11-12T12:03:48.892Z,2048.00
2018-11-12T12:04:48.915Z,2244.00
2018-11-12T12:05:48.879Z,2280.00
2018-11-12T12:06:48.884Z,2848.00
2018-11-12T12:07:48.876Z,3284.00
2018-11-12T12:08:48.925Z,2532.00
2018-11-12T12:09:48.860Z,2244.00
2018-11-12T12:10:48.819Z,2144.00
2018-11-12T12:11:48.814Z,2532.00
2018-11-12T12:12:48.831Z,2572.00
2018-11-12T12:13:48.788Z,2684.00
2018-11-12T12:14:48.782Z,1992.00
2018-11-12T12:15:48.849Z,2012.00
2018-11-12T12:16:48.837Z,2584.00
2018-11-12T12:17:48.813Z,3344.00
2018-11-12T12:18:48.762Z,2828.00
2018-11-12T12:19:48.729Z,3084.00
2018-11-12T12:20:48.867Z,3064.00
2018-11-12T12:21:48.804Z,3248.00
2018-11-12T12:22:48.740Z,2032.00
2018-11-12T12:23:48.743Z,2092.00
2018-11-12T12:24:56.319Z,2024.00
2018-11-12T12:25:48.766Z,2144.00
2018-11-12T12:26:48.650Z,2780.00
2018-11-12T12:27:48.674Z,2888.00
2018-11-12T12:28:48.673Z,2476.00
2018-11-12T12:29:48.638Z,2508.00
2018-11-12T12:30:48.605Z,2552.00
2018-11-12T12:31:48.670Z,2276.00
2018-11-12T12:32:48.586Z,2700.00
2018-11-12T12:33:48.593Z,2260.00
2018-11-12T12:34:48.659Z,2404.00
2018-11-12T12:35:48.612Z,2252.00
2018-11-12T12:36:48.628Z,1924.00
2018-11-12T12:37:48.533Z,2100.00
2018-11-12T12:38:48.528Z,1676.00
2018-11-12T12:39:48.535Z,2792.00
2018-11-12T12:40:48.564Z,2752.00
2018-11-12T12:41:48.520Z,2912.00
2018-11-12T12:42:48.482Z,2216.00
2018-11-12T12:43:48.468Z,1888.00
2018-11-12T12:44:48.476Z,1664.00
2018-11-12T12:45:48.630Z,1872.00
2018-11-12T12:46:48.434Z,1704.00